createdAt,value
2022-12-01T00:01:10.120Z,100853.25
2022-12-01T00:03:37.549Z,100831.66
2022-12-01T00:06:23.326Z,100833.41
2022-12-01T00:09:15.155Z,100828.19
2022-12-01T00:11:43.302Z,100838.69
2022-12-01T00:14:09.951Z,100829.19
2022-12-01T00:16:36.808Z,100839.44
2022-12-01T00:19:03.592Z,100836.03
2022-12-01T00:21:30.228Z,100827.34
2022-12-01T00:23:57.926Z,100830.78
2022-12-01T00:26:25.937Z,100828.16
2022-12-01T00:28:57.114Z,100832.38
2022-12-01T00:31:23.965Z,100835.78
2022-12-01T00:33:51.259Z,100836.53
2022-12-01T00:36:18.512Z,100835.59
2022-12-01T00:38:45.447Z,100835.63
2022-12-01T00:41:12.240Z,100824.38
2022-12-01T00:43:39.906Z,100839.00
2022-12-01T00:46:06.726Z,100827.72
2022-12-01T00:48:33.488Z,100821.78
2022-12-01T00:51:00.115Z,100835.47
2022-12-01T00:53:26.859Z,100831.22
2022-12-01T00:55:54.199Z,100830.28
2022-12-01T00:58:21.491Z,100819.75
2022-12-01T01:00:48.450Z,100831.63
2022-12-01T01:03:15.203Z,100824.63
2022-12-01T01:05:43.044Z,100827.97
2022-12-01T01:08:11.178Z,100828.75
2022-12-01T01:10:39.600Z,100816.78
2022-12-01T01:13:06.445Z,100818.41
2022-12-01T01:15:33.433Z,100825.09
2022-12-01T01:18:00.074Z,100819.97
2022-12-01T01:20:26.713Z,100819.91
2022-12-01T01:22:53.335Z,100813.84
2022-12-01T01:25:19.962Z,100831.88
2022-12-01T01:27:46.618Z,100826.88
2022-12-01T01:30:13.645Z,100823.41
2022-12-01T01:32:40.456Z,100810.53
2022-12-01T01:35:08.286Z,100821.75
2022-12-01T01:37:34.969Z,100803.41
2022-12-01T01:40:01.646Z,100812.13
2022-12-01T01:42:28.256Z,100819.09
2022-12-01T01:44:57.589Z,100819.91
2022-12-01T01:47:29.857Z,100803.50
2022-12-01T01:49:58.823Z,100811.19
2022-12-01T01:52:25.853Z,100815.56
2022-12-01T01:54:54.347Z,100801.56
2022-12-01T01:57:26.117Z,100815.47
2022-12-01T01:59:57.091Z,100811.06
2022-12-01T02:02:25.670Z,100812.78
2022-12-01T02:04:59.654Z,100813.50
2022-12-01T02:07:26.399Z,100814.47
2022-12-01T02:09:54.069Z,100815.16
2022-12-01T02:12:48.223Z,100815.91
2022-12-01T02:15:33.629Z,100819.25
2022-12-01T02:18:44.660Z,100816.66
2022-12-01T02:21:25.416Z,100821.72
2022-12-01T02:24:03.990Z,100818.31
2022-12-01T02:26:39.861Z,100810.47
2022-12-01T02:29:37.799Z,100809.66
2022-12-01T02:32:31.376Z,100805.34
2022-12-01T02:35:18.836Z,100804.50
2022-12-01T02:38:00.491Z,100787.00
2022-12-01T02:40:33.878Z,100798.25
2022-12-01T02:43:33.549Z,100808.56
2022-12-01T02:46:09.617Z,100800.75
2022-12-01T02:48:39.441Z,100805.94
2022-12-01T02:51:35.630Z,100805.88
2022-12-01T02:54:02.592Z,100812.88
2022-12-01T02:56:29.378Z,100788.66
2022-12-01T02:58:56.097Z,100803.31
2022-12-01T03:01:25.559Z,100813.63
2022-12-01T03:04:18.244Z,100804.94
2022-12-01T03:07:00.062Z,100815.16
2022-12-01T03:09:33.630Z,100807.66
2022-12-01T03:12:37.663Z,100811.22
2022-12-01T03:15:11.272Z,100809.44
2022-12-01T03:17:48.475Z,100804.22
2022-12-01T03:20:22.923Z,100802.56
2022-12-01T03:22:52.738Z,100807.66
2022-12-01T03:25:20.256Z,100799.81
2022-12-01T03:28:19.192Z,100809.25
2022-12-01T03:30:37.283Z,100805.94
2022-12-01T03:33:19.221Z,100805.66
2022-12-01T03:35:54.775Z,100810.03
2022-12-01T03:38:25.814Z,100812.59
2022-12-01T03:40:57.070Z,100811.66
2022-12-01T03:43:31.365Z,100811.69
2022-12-01T03:46:18.096Z,100798.69
2022-12-01T03:48:44.851Z,100799.59
2022-12-01T03:51:30.036Z,100810.00
2022-12-01T03:54:05.958Z,100800.25
2022-12-01T03:56:37.560Z,100801.16
2022-12-01T03:59:05.689Z,100810.66
2022-12-01T04:01:34.295Z,100816.59
2022-12-01T04:04:09.445Z,100814.00
2022-12-01T04:06:36.242Z,100811.28
2022-12-01T04:09:03.525Z,100815.66
2022-12-01T04:11:49.112Z,100821.63
2022-12-01T04:14:15.796Z,100810.34
2022-12-01T04:16:42.459Z,100805.06
2022-12-01T04:19:09.176Z,100816.25
2022-12-01T04:21:35.868Z,100816.31
2022-12-01T04:24:02.626Z,100827.41
2022-12-01T04:26:34.660Z,100819.69
2022-12-01T04:29:08.678Z,100818.88
2022-12-01T04:31:35.936Z,100817.97
2022-12-01T04:34:03.256Z,100823.00
2022-12-01T04:36:31.807Z,100825.53
2022-12-01T04:38:58.714Z,100826.28
2022-12-01T04:41:25.434Z,100809.97
2022-12-01T04:43:55.865Z,100814.19
2022-12-01T04:46:23.279Z,100814.22
2022-12-01T04:48:50.123Z,100814.22
2022-12-01T04:51:19.819Z,100840.94
2022-12-01T04:53:46.541Z,100828.13
2022-12-01T04:56:13.366Z,100825.44
2022-12-01T04:58:40.412Z,100828.03
2022-12-01T05:01:09.302Z,100827.19
2022-12-01T05:03:40.559Z,100821.06
2022-12-01T05:06:16.013Z,100824.53
2022-12-01T05:08:42.631Z,100827.94
2022-12-01T05:11:11.875Z,100813.13
2022-12-01T05:13:40.256Z,100836.38
2022-12-01T05:16:07.797Z,100832.13
2022-12-01T05:18:34.912Z,100820.00
2022-12-01T05:21:04.078Z,100825.03
2022-12-01T05:23:33.148Z,100831.94
2022-12-01T05:26:00.081Z,100837.06
2022-12-01T05:28:27.471Z,100832.72
2022-12-01T05:30:54.732Z,100840.41
2022-12-01T05:33:22.434Z,100833.69
2022-12-01T05:35:49.908Z,100839.63
2022-12-01T05:38:17.236Z,100816.34
2022-12-01T05:40:49.262Z,100832.91
2022-12-01T05:43:15.986Z,100836.28
2022-12-01T05:45:42.766Z,100831.06
2022-12-01T05:48:09.521Z,100844.03
2022-12-01T05:50:39.121Z,100845.78
2022-12-01T05:53:06.777Z,100844.88
2022-12-01T05:55:36.039Z,100846.69
2022-12-01T05:58:02.992Z,100850.25
2022-12-01T06:00:29.734Z,100846.13
2022-12-01T06:02:56.395Z,100851.41
2022-12-01T06:05:23.323Z,100844.47
2022-12-01T06:07:50.057Z,100847.13
2022-12-01T06:10:16.975Z,100857.53
2022-12-01T06:12:43.619Z,100849.88
2022-12-01T06:15:11.544Z,100856.81
2022-12-01T06:17:40.459Z,100860.28
2022-12-01T06:20:08.363Z,100863.78
2022-12-01T06:22:35.155Z,100856.09
2022-12-01T06:25:01.888Z,100849.34
2022-12-01T06:27:28.514Z,100847.47
2022-12-01T06:29:55.164Z,100854.56
2022-12-01T06:32:21.816Z,100849.44
2022-12-01T06:34:48.464Z,100846.97
2022-12-01T06:37:18.168Z,100846.06
2022-12-01T06:39:44.851Z,100843.56
2022-12-01T06:42:12.140Z,100848.72
2022-12-01T06:44:38.989Z,100816.00
2022-12-01T06:47:05.663Z,100849.88
2022-12-01T06:49:32.366Z,100843.91
2022-12-01T06:52:00.979Z,100847.44
2022-12-01T06:54:27.795Z,100841.34
2022-12-01T06:56:54.472Z,100850.09
2022-12-01T06:59:21.604Z,100851.78
2022-12-01T07:01:48.782Z,100839.78
2022-12-01T07:04:15.521Z,100848.34
2022-12-01T07:06:42.177Z,100851.00
2022-12-01T07:09:08.815Z,100846.25
2022-12-01T07:11:36.618Z,100843.59
2022-12-01T07:14:03.831Z,100853.09
2022-12-01T07:16:31.008Z,100854.19
2022-12-01T07:18:57.749Z,100855.06
2022-12-01T07:21:25.018Z,100847.28
2022-12-01T07:23:51.778Z,100849.03
2022-12-01T07:26:18.856Z,100854.94
2022-12-01T07:28:46.036Z,100843.81
2022-12-01T07:31:15.076Z,100853.63
2022-12-01T07:33:41.921Z,100847.75
2022-12-01T07:36:09.590Z,100851.88
2022-12-01T07:38:36.348Z,100851.88
2022-12-01T07:41:08.309Z,100850.84
2022-12-01T07:43:35.620Z,100850.13
2022-12-01T07:46:18.727Z,100833.13
2022-12-01T07:48:49.099Z,100831.34
2022-12-01T07:51:16.877Z,100848.94
2022-12-01T07:53:47.835Z,100816.19
2022-12-01T07:56:14.638Z,100830.16
2022-12-01T07:58:41.915Z,100848.22
2022-12-01T08:01:13.898Z,100821.66
2022-12-01T08:03:41.296Z,100833.72
2022-12-01T08:06:08.849Z,100843.16
2022-12-01T08:08:37.607Z,100837.38
2022-12-01T08:11:08.332Z,100844.03
2022-12-01T08:13:35.096Z,100840.81
2022-12-01T08:16:09.418Z,100835.19
2022-12-01T08:18:37.351Z,100834.13
2022-12-01T08:21:05.171Z,100829.09
2022-12-01T08:23:32.036Z,100831.28
2022-12-01T08:26:02.944Z,100826.41
2022-12-01T08:28:29.990Z,100825.09
2022-12-01T08:30:56.912Z,100823.34
2022-12-01T08:33:24.075Z,100831.59
2022-12-01T08:35:50.782Z,100834.97
2022-12-01T08:38:17.582Z,100825.28
2022-12-01T08:40:44.305Z,100815.34
2022-12-01T08:43:23.146Z,100820.56
2022-12-01T08:45:59.405Z,100807.22
2022-12-01T08:48:26.394Z,100806.13
2022-12-01T08:50:53.067Z,100805.78
2022-12-01T08:53:19.792Z,100811.09
2022-12-01T08:55:46.440Z,100813.91
2022-12-01T08:58:13.108Z,100810.75
2022-12-01T09:00:39.760Z,100791.81
2022-12-01T09:03:06.410Z,100802.53
2022-12-01T09:05:33.166Z,100819.69
2022-12-01T09:08:18.583Z,100811.72
2022-12-01T09:10:52.332Z,100817.50
2022-12-01T09:13:19.031Z,100812.16
2022-12-01T09:15:55.124Z,100794.28
2022-12-01T09:18:21.935Z,100809.44
2022-12-01T09:20:48.571Z,100811.97
2022-12-01T09:23:15.228Z,100808.38
2022-12-01T09:25:41.873Z,100804.72
2022-12-01T09:28:08.531Z,100810.72
2022-12-01T09:30:36.118Z,100801.50
2022-12-01T09:33:02.723Z,100806.38
2022-12-01T09:35:31.427Z,100796.91
2022-12-01T09:37:58.691Z,100788.63
2022-12-01T09:40:30.887Z,100792.22
2022-12-01T09:42:58.692Z,100799.25
2022-12-01T09:45:28.604Z,100806.59
2022-12-01T09:47:57.440Z,100798.75
2022-12-01T09:50:25.595Z,100777.25
2022-12-01T09:52:57.249Z,100785.72
2022-12-01T09:55:25.772Z,100800.75
2022-12-01T09:57:54.830Z,100785.53
2022-12-01T10:00:27.462Z,100795.19
2022-12-01T10:02:58.175Z,100803.06
2022-12-01T10:05:29.770Z,100803.19
2022-12-01T10:08:06.086Z,100796.47
2022-12-01T10:10:42.370Z,100789.53
2022-12-01T10:13:23.446Z,100778.53
2022-12-01T10:16:08.392Z,100792.09
2022-12-01T10:18:35.422Z,100792.09
2022-12-01T10:21:23.053Z,100775.94
2022-12-01T10:24:01.487Z,100772.75
2022-12-01T10:26:55.706Z,100772.94
2022-12-01T10:29:31.570Z,100773.00
2022-12-01T10:32:02.617Z,100770.25
2022-12-01T10:34:33.814Z,100765.97
2022-12-01T10:37:01.046Z,100773.53
2022-12-01T10:39:31.098Z,100759.56
2022-12-01T10:42:04.882Z,100767.34
2022-12-01T10:44:31.915Z,100765.28
2022-12-01T10:46:58.895Z,100767.00
2022-12-01T10:49:41.406Z,100755.00
2022-12-01T10:52:11.017Z,100756.88
2022-12-01T10:54:41.194Z,100756.22
2022-12-01T10:57:15.580Z,100757.94
2022-12-01T10:59:48.568Z,100757.91
2022-12-01T11:02:20.173Z,100765.84
2022-12-01T11:04:52.869Z,100762.56
2022-12-01T11:07:26.224Z,100750.63
2022-12-01T11:10:18.444Z,100761.53
2022-12-01T11:12:52.525Z,100752.31
2022-12-01T11:15:22.298Z,100737.53
2022-12-01T11:17:49.215Z,100737.38
2022-12-01T11:20:31.690Z,100742.50
2022-12-01T11:23:10.455Z,100749.31
2022-12-01T11:25:37.075Z,100747.69
2022-12-01T11:28:04.154Z,100715.59
2022-12-01T11:30:32.326Z,100742.53
2022-12-01T11:33:00.798Z,100755.66
2022-12-01T11:35:33.440Z,100735.56
2022-12-01T11:40:53.915Z,100733.69
2022-12-01T11:43:31.875Z,100739.75
2022-12-01T11:46:01.627Z,100738.31
2022-12-01T11:48:30.565Z,100739.50
2022-12-01T11:51:20.437Z,100737.66
2022-12-01T11:53:47.197Z,100741.81
2022-12-01T11:56:15.778Z,100725.31
2022-12-01T11:58:47.595Z,100731.44
2022-12-01T12:01:27.819Z,100729.03
2022-12-01T12:04:16.236Z,100738.47
2022-12-01T12:07:02.719Z,100742.53
2022-12-01T12:09:47.302Z,100735.75
2022-12-01T12:12:23.165Z,100740.75
2022-12-01T12:15:10.008Z,100741.31
2022-12-01T12:17:55.030Z,100742.19
2022-12-01T12:20:46.221Z,100712.66
2022-12-01T12:23:20.518Z,100731.97
2022-12-01T12:26:08.504Z,100739.59
2022-12-01T12:29:02.720Z,100731.09
2022-12-01T12:31:39.183Z,100738.00
2022-12-01T12:34:45.490Z,100728.22
2022-12-01T12:37:18.724Z,100735.22
2022-12-01T12:40:00.735Z,100730.06
2022-12-01T12:42:39.541Z,100729.94
2022-12-01T12:45:23.070Z,100731.72
2022-12-01T12:47:52.642Z,100748.00
2022-12-01T12:50:47.827Z,100748.03
2022-12-01T12:53:19.519Z,100750.53
2022-12-01T12:55:49.597Z,100753.13
2022-12-01T12:59:02.763Z,100757.38
2022-12-01T13:01:34.842Z,100753.91
2022-12-01T13:04:06.787Z,100751.09
2022-12-01T13:06:44.706Z,100761.50
2022-12-01T13:09:24.615Z,100744.22
2022-12-01T13:12:16.128Z,100726.13
2022-12-01T13:15:19.934Z,100733.09
2022-12-01T13:18:09.862Z,100743.31
2022-12-01T13:20:38.278Z,100736.47
2022-12-01T13:23:08.292Z,100728.59
2022-12-01T13:25:40.203Z,100732.06
2022-12-01T13:28:34.294Z,100741.63
2022-12-01T13:31:07.393Z,100751.16
2022-12-01T13:33:35.183Z,100730.53
2022-12-01T13:36:38.111Z,100740.84
2022-12-01T13:39:13.528Z,100733.19
2022-12-01T13:41:40.689Z,100745.25
2022-12-01T13:44:20.354Z,100741.72
2022-12-01T13:46:47.014Z,100746.94
2022-12-01T13:49:35.058Z,100749.50
2022-12-01T13:52:22.867Z,100728.94
2022-12-01T13:55:27.384Z,100746.94
2022-12-01T13:57:57.081Z,100741.81
2022-12-01T14:00:34.777Z,100736.59
2022-12-01T14:03:13.652Z,100741.88
2022-12-01T14:05:40.393Z,100741.91
2022-12-01T14:08:23.750Z,100735.84
2022-12-01T14:11:06.638Z,100737.63
2022-12-01T14:13:47.223Z,100743.56
2022-12-01T14:16:13.968Z,100738.25
2022-12-01T14:18:43.924Z,100751.19
2022-12-01T14:21:12.477Z,100739.06
2022-12-01T14:23:59.892Z,100742.50
2022-12-01T14:26:28.571Z,100752.00
2022-12-01T14:28:55.126Z,100750.34
2022-12-01T14:31:46.863Z,100753.72
2022-12-01T14:34:21.091Z,100748.56
2022-12-01T14:36:49.894Z,100736.53
2022-12-01T14:39:36.264Z,100753.91
2022-12-01T14:42:03.621Z,100751.28
2022-12-01T14:44:33.161Z,100748.69
2022-12-01T14:47:12.426Z,100757.28
2022-12-01T14:50:10.248Z,100752.22
2022-12-01T14:52:38.649Z,100755.50
2022-12-01T14:55:08.248Z,100752.94
2022-12-01T14:57:38.477Z,100752.06
2022-12-01T15:00:11.115Z,100753.78
2022-12-01T15:02:56.888Z,100747.78
2022-12-01T15:05:27.597Z,100750.28
2022-12-01T15:08:18.679Z,100747.91
2022-12-01T15:10:51.470Z,100744.31
2022-12-01T15:13:28.020Z,100748.63
2022-12-01T15:16:00.581Z,100742.53
2022-12-01T15:18:36.976Z,100742.53
2022-12-01T15:21:11.293Z,100733.13
2022-12-01T15:23:52.842Z,100739.94
2022-12-01T15:26:20.677Z,100728.84
2022-12-01T15:28:47.310Z,100745.16
2022-12-01T15:31:14.242Z,100744.34
2022-12-01T15:33:49.087Z,100735.69
2022-12-01T15:36:15.883Z,100724.41
2022-12-01T15:38:44.763Z,100742.63
2022-12-01T15:41:34.096Z,100744.34
2022-12-01T15:44:03.612Z,100734.81
2022-12-01T15:46:32.589Z,100719.22
2022-12-01T15:49:15.591Z,100724.38
2022-12-01T15:51:42.310Z,100736.56
2022-12-01T15:54:18.484Z,100735.66
2022-12-01T15:56:45.618Z,100726.22
2022-12-01T15:59:12.210Z,100736.53
2022-12-01T16:01:39.706Z,100735.75
2022-12-01T16:04:16.831Z,100708.91
2022-12-01T16:07:05.015Z,100720.19
2022-12-01T16:09:33.818Z,100738.34
2022-12-01T16:12:09.429Z,100732.28
2022-12-01T16:14:36.944Z,100731.41
2022-12-01T16:17:04.740Z,100714.03
2022-12-01T16:19:33.320Z,100709.88
2022-12-01T16:22:03.314Z,100716.72
2022-12-01T16:24:52.639Z,100691.53
2022-12-01T16:27:30.603Z,100700.38
2022-12-01T16:30:18.975Z,100702.06
2022-12-01T16:32:45.696Z,100704.69
2022-12-01T16:35:21.420Z,100704.72
2022-12-01T16:37:48.048Z,100710.63
2022-12-01T16:40:15.263Z,100693.47
2022-12-01T16:42:41.943Z,100699.50
2022-12-01T16:45:13.826Z,100683.16
2022-12-01T16:47:41.063Z,100699.50
2022-12-01T16:50:10.106Z,100702.13
2022-12-01T16:52:44.066Z,100699.59
2022-12-01T16:55:43.981Z,100703.84
2022-12-01T16:58:10.804Z,100702.19
2022-12-01T17:00:37.518Z,100703.84
2022-12-01T17:03:04.680Z,100703.88
2022-12-01T17:05:31.722Z,100698.66
2022-12-01T17:07:58.594Z,100696.13
2022-12-01T17:10:25.933Z,100700.38
2022-12-01T17:12:52.655Z,100699.56
2022-12-01T17:15:19.418Z,100680.56
2022-12-01T17:17:46.135Z,100691.63
2022-12-01T17:20:13.193Z,100709.69
2022-12-01T17:22:39.824Z,100703.78
2022-12-01T17:25:08.816Z,100701.91
2022-12-01T17:27:36.582Z,100713.16
2022-12-01T17:30:04.194Z,100709.75
2022-12-01T17:32:30.973Z,100705.44
2022-12-01T17:34:57.723Z,100693.31
2022-12-01T17:37:24.396Z,100699.44
2022-12-01T17:39:51.096Z,100682.09
2022-12-01T17:42:17.756Z,100699.41
2022-12-01T17:44:44.587Z,100693.44
2022-12-01T17:47:11.914Z,100692.56
2022-12-01T17:49:38.840Z,100690.69
2022-12-01T17:52:06.850Z,100702.78
2022-12-01T17:54:33.878Z,100695.88
2022-12-01T17:57:00.544Z,100689.78
2022-12-01T17:59:27.330Z,100674.22
2022-12-01T18:01:53.991Z,100699.19
2022-12-01T18:04:20.665Z,100693.94
2022-12-01T18:06:53.539Z,100691.34
2022-12-01T18:09:20.963Z,100692.25
2022-12-01T18:11:47.698Z,100706.84
2022-12-01T18:14:17.930Z,100697.31
2022-12-01T18:16:45.356Z,100695.69
2022-12-01T18:19:12.321Z,100671.44
2022-12-01T18:21:39.319Z,100695.63
2022-12-01T18:24:08.942Z,100690.41
2022-12-01T18:26:36.753Z,100694.81
2022-12-01T18:29:07.362Z,100699.91
2022-12-01T18:31:34.727Z,100684.38
2022-12-01T18:34:04.890Z,100689.50
2022-12-01T18:36:33.691Z,100695.63
2022-12-01T18:39:01.283Z,100690.47
2022-12-01T18:41:27.995Z,100688.72
2022-12-01T18:43:54.827Z,100693.09
2022-12-01T18:46:21.916Z,100689.66
2022-12-01T18:49:00.586Z,100695.59
2022-12-01T18:51:28.111Z,100692.13
2022-12-01T18:54:00.583Z,100693.88
2022-12-01T18:56:28.048Z,100691.31
2022-12-01T18:58:56.307Z,100691.19
2022-12-01T19:01:27.237Z,100666.91
2022-12-01T19:03:57.831Z,100691.25
2022-12-01T19:06:25.685Z,100698.16
2022-12-01T19:08:53.474Z,100667.78
2022-12-01T19:11:20.550Z,100699.81
2022-12-01T19:13:47.489Z,100705.84
2022-12-01T19:16:16.535Z,100708.41
2022-12-01T19:18:43.777Z,100693.81
2022-12-01T19:21:12.246Z,100700.66
2022-12-01T19:23:39.173Z,100699.88
2022-12-01T19:26:07.879Z,100693.81
2022-12-01T19:28:36.160Z,100698.03
2022-12-01T19:31:13.752Z,100688.47
2022-12-01T19:33:40.988Z,100698.84
2022-12-01T19:36:10.739Z,100695.47
2022-12-01T19:38:37.493Z,100687.56
2022-12-01T19:41:05.135Z,100699.84
2022-12-01T19:43:34.787Z,100692.75
2022-12-01T19:46:15.781Z,100698.75
2022-12-01T19:48:43.343Z,100679.81
2022-12-01T19:51:24.681Z,100706.56
2022-12-01T19:53:52.906Z,100701.47
2022-12-01T19:56:20.238Z,100704.00
2022-12-01T19:58:46.955Z,100663.16
2022-12-01T20:01:15.856Z,100677.97
2022-12-01T20:03:45.576Z,100692.81
2022-12-01T20:06:15.174Z,100690.03
2022-12-01T20:08:42.912Z,100687.50
2022-12-01T20:11:10.148Z,100697.78
2022-12-01T20:13:39.096Z,100695.84
2022-12-01T20:16:11.968Z,100674.31
2022-12-01T20:18:39.501Z,100697.75
2022-12-01T20:21:09.444Z,100705.31
2022-12-01T20:23:36.814Z,100707.88
2022-12-01T20:26:06.781Z,100704.38
2022-12-01T20:28:34.145Z,100710.34
2022-12-01T20:31:00.961Z,100708.63
2022-12-01T20:33:28.533Z,100711.19
2022-12-01T20:35:55.258Z,100712.03
2022-12-01T20:38:27.706Z,100686.94
2022-12-01T20:40:54.703Z,100699.06
2022-12-01T20:43:21.498Z,100703.34
2022-12-01T20:45:49.301Z,100719.75
2022-12-01T20:48:16.339Z,100691.22
2022-12-01T20:50:43.099Z,100708.50
2022-12-01T20:53:10.341Z,100709.31
2022-12-01T20:55:37.234Z,100700.56
2022-12-01T20:58:08.641Z,100711.91
2022-12-01T21:00:37.881Z,100717.03
2022-12-01T21:03:05.371Z,100722.25
2022-12-01T21:05:34.811Z,100731.66
2022-12-01T21:08:02.181Z,100715.34
2022-12-01T21:10:28.955Z,100724.81
2022-12-01T21:13:17.748Z,100723.03
2022-12-01T21:16:01.868Z,100723.91
2022-12-01T21:18:33.410Z,100726.44
2022-12-01T21:21:05.162Z,100721.09
2022-12-01T21:23:31.969Z,100723.00
2022-12-01T21:25:58.617Z,100717.75
2022-12-01T21:28:26.640Z,100719.50
2022-12-01T21:31:02.625Z,100735.81
2022-12-01T21:33:35.946Z,100724.59
2022-12-01T21:36:04.566Z,100698.53
2022-12-01T21:38:31.979Z,100714.00
2022-12-01T21:40:58.722Z,100704.41
2022-12-01T21:43:25.911Z,100722.69
2022-12-01T21:45:56.340Z,100720.97
2022-12-01T21:48:23.353Z,100719.22
2022-12-01T21:51:05.004Z,100721.56
2022-12-01T21:53:36.522Z,100719.06
2022-12-01T21:56:03.141Z,100706.91
2022-12-01T21:58:35.463Z,100712.94
2022-12-01T22:01:03.321Z,100712.97
2022-12-01T22:03:32.795Z,100706.13
2022-12-01T22:06:29.685Z,100700.16
2022-12-01T22:09:00.882Z,100698.41
2022-12-01T22:11:29.068Z,100695.81
2022-12-01T22:14:20.424Z,100707.84
2022-12-01T22:16:58.963Z,100691.53
2022-12-01T22:19:30.273Z,100698.47
2022-12-01T22:22:09.066Z,100693.28
2022-12-01T22:24:41.738Z,100693.25
2022-12-01T22:27:40.802Z,100691.31
2022-12-01T22:30:07.500Z,100690.50
2022-12-01T22:32:41.360Z,100678.38
2022-12-01T22:35:55.718Z,100691.25
2022-12-01T22:38:31.523Z,100690.31
2022-12-01T22:41:02.789Z,100695.53
2022-12-01T22:43:51.199Z,100697.97
2022-12-01T22:46:35.308Z,100680.72
2022-12-01T22:49:10.976Z,100689.38
2022-12-01T22:51:47.587Z,100684.19
2022-12-01T22:54:14.158Z,100687.59
2022-12-01T22:56:48.914Z,100682.34
2022-12-01T22:59:20.015Z,100677.22
2022-12-01T23:01:52.947Z,100677.19
2022-12-01T23:04:28.427Z,100683.25
2022-12-01T23:07:46.706Z,100678.16
2022-12-01T23:10:16.765Z,100673.69
2022-12-01T23:12:44.782Z,100687.50
2022-12-01T23:15:26.639Z,100681.47
2022-12-01T23:17:53.556Z,100660.56
2022-12-01T23:20:20.077Z,100679.69
2022-12-01T23:22:47.749Z,100673.69
2022-12-01T23:25:16.739Z,100670.34
2022-12-01T23:27:45.395Z,100662.53
2022-12-01T23:30:12.968Z,100677.09
2022-12-01T23:32:39.735Z,100658.22
2022-12-01T23:35:09.784Z,100674.50
2022-12-01T23:37:38.057Z,100656.41
2022-12-01T23:40:16.962Z,100671.97
2022-12-01T23:42:43.802Z,100667.53
2022-12-01T23:45:21.911Z,100672.78
2022-12-01T23:47:49.382Z,100670.25
2022-12-01T23:50:22.084Z,100666.75
2022-12-01T23:52:48.841Z,100667.69
2022-12-01T23:55:29.420Z,100670.22
2022-12-01T23:57:56.753Z,100672.69
